< < Back
Terminal Aerodrome Forecast


Current Version              Previous Versions:   1  2  3  4  5  6  7  8  9  

Terminal Aerodrome Forecast

963
FTUS42 KJAX 272141 AAC
TAFJAX
TAF AMD
KJAX 272141Z 2722/2818 04012G18KT P6SM FEW025 SCT150 OVC200
     FM280000 02009KT P6SM BKN025 OVC200
     FM280600 02010G16KT P6SM VCSH SCT015 BKN030 OVC200
     FM281200 03012G21KT P6SM VCSH OVC015 PROB30 2812/2816 5SM -RA
      OVC007=

Latest METAR

106
SAUS80 KWBC 280500 CCA
MTRJAX
METAR KJAX 280456Z 02012KT 10SM OVC030 11/06 A3037 RMK AO2 SLP284
T01060061 401170067


USA.gov is the U.S. government's official web portal to all federal, state and local government web resources and services.